createdAt,value
2019-05-29T00:02:07.945Z,99.90
2019-05-29T00:04:35.335Z,99.90
2019-05-29T00:07:02.718Z,99.90
2019-05-29T00:09:30.434Z,99.90
2019-05-29T00:12:04.443Z,99.90
2019-05-29T00:14:31.855Z,99.90
2019-05-29T00:16:59.323Z,99.90
2019-05-29T00:19:43.927Z,99.90
2019-05-29T00:22:12.344Z,99.90
2019-05-29T00:24:44.166Z,99.90
2019-05-29T00:27:15.533Z,99.90
2019-05-29T00:29:45.269Z,99.90
2019-05-29T00:32:13.470Z,99.90
2019-05-29T00:34:41.071Z,99.90
2019-05-29T00:37:08.584Z,99.90
2019-05-29T00:39:36.186Z,99.90
2019-05-29T00:42:04.014Z,99.90
2019-05-29T00:44:34.283Z,99.90
2019-05-29T00:47:00.903Z,99.90
2019-05-29T00:49:28.335Z,99.90
2019-05-29T00:51:55.828Z,99.90
2019-05-29T00:54:25.763Z,99.90
2019-05-29T00:56:53.217Z,99.90
2019-05-29T00:59:20.661Z,99.90
2019-05-29T01:01:48.349Z,99.90
2019-05-29T01:04:16.068Z,99.90
2019-05-29T01:06:43.481Z,99.90
2019-05-29T01:09:12.288Z,99.90
2019-05-29T01:11:39.720Z,99.90
2019-05-29T01:14:07.234Z,99.90
2019-05-29T01:16:34.696Z,99.90
2019-05-29T01:19:24.369Z,99.90
2019-05-29T01:21:51.910Z,99.90
2019-05-29T01:24:20.533Z,99.90
2019-05-29T01:26:51.175Z,99.90
2019-05-29T01:29:19.491Z,99.90
2019-05-29T01:31:49.126Z,99.90
2019-05-29T01:34:17.599Z,99.90
2019-05-29T01:36:47.353Z,99.90
2019-05-29T01:39:15.138Z,99.90
2019-05-29T01:41:43.114Z,99.90
2019-05-29T01:44:10.513Z,99.90
2019-05-29T01:46:37.968Z,99.90
2019-05-29T01:49:05.486Z,99.90
2019-05-29T01:51:32.975Z,99.90
2019-05-29T01:54:00.850Z,99.90
2019-05-29T01:56:28.304Z,99.90
2019-05-29T01:58:55.667Z,99.90
2019-05-29T02:01:23.982Z,99.90
2019-05-29T02:03:51.437Z,99.90
2019-05-29T02:06:19.875Z,99.90
2019-05-29T02:08:47.466Z,99.90
2019-05-29T02:11:15.076Z,99.90
2019-05-29T02:13:42.712Z,99.90
2019-05-29T02:16:10.120Z,99.90
2019-05-29T02:18:37.863Z,99.90
2019-05-29T02:21:05.566Z,99.90
2019-05-29T02:23:33.278Z,99.90
2019-05-29T02:26:00.756Z,99.90
2019-05-29T02:28:28.454Z,99.90
2019-05-29T02:30:55.920Z,99.90
2019-05-29T02:33:24.215Z,99.90
2019-05-29T02:35:52.980Z,99.90
2019-05-29T02:38:21.150Z,99.90
2019-05-29T02:40:49.913Z,99.90
2019-05-29T02:43:19.260Z,99.90
2019-05-29T02:45:54.134Z,99.90
2019-05-29T02:48:16.251Z,99.90
2019-05-29T02:50:43.803Z,99.90
2019-05-29T02:53:11.527Z,99.90
2019-05-29T02:55:38.915Z,99.90
2019-05-29T02:58:06.616Z,99.90
2019-05-29T03:01:05.336Z,99.90
2019-05-29T03:03:39.158Z,99.90
2019-05-29T03:06:02.232Z,99.90
2019-05-29T03:08:34.977Z,99.90
2019-05-29T03:11:02.551Z,99.90
2019-05-29T03:13:33.691Z,99.90
2019-05-29T03:16:10.727Z,99.90
2019-05-29T03:18:32.572Z,99.90
2019-05-29T03:21:00.932Z,99.90
2019-05-29T03:23:29.125Z,99.90
2019-05-29T03:26:00.345Z,99.90
2019-05-29T03:28:29.964Z,99.90
2019-05-29T03:30:57.875Z,99.90
2019-05-29T03:33:32.483Z,99.90
2019-05-29T03:35:57.119Z,99.90
2019-05-29T03:38:25.935Z,99.90
2019-05-29T03:40:56.583Z,99.90
2019-05-29T03:43:26.143Z,99.90
2019-05-29T03:45:53.780Z,99.90
2019-05-29T03:48:21.514Z,99.90
2019-05-29T03:50:48.946Z,99.90
2019-05-29T03:53:18.279Z,99.90
2019-05-29T03:55:48.413Z,99.90
2019-05-29T03:58:19.111Z,99.90
2019-05-29T04:00:48.763Z,99.90
2019-05-29T04:03:17.560Z,99.90
2019-05-29T04:05:47.043Z,99.90
2019-05-29T04:08:17.261Z,99.90
2019-05-29T04:10:45.287Z,99.90
2019-05-29T04:13:13.251Z,99.90
2019-05-29T04:15:44.817Z,99.90
2019-05-29T04:18:12.575Z,99.90
2019-05-29T04:20:40.858Z,99.90
2019-05-29T04:23:08.359Z,99.90
2019-05-29T04:25:40.643Z,99.90
2019-05-29T04:28:10.824Z,99.90
2019-05-29T04:30:39.202Z,99.90
2019-05-29T04:33:09.428Z,99.90
2019-05-29T04:35:39.388Z,99.90
2019-05-29T04:38:08.174Z,99.90
2019-05-29T04:40:37.223Z,99.90
2019-05-29T04:43:06.322Z,99.90
2019-05-29T04:45:35.365Z,99.90
2019-05-29T04:48:03.030Z,99.90
2019-05-29T04:50:33.410Z,99.90
2019-05-29T04:53:01.793Z,99.90
2019-05-29T04:55:34.809Z,99.90
2019-05-29T04:58:02.294Z,99.90
2019-05-29T05:00:33.120Z,99.90
2019-05-29T05:03:00.630Z,99.90
2019-05-29T05:05:29.296Z,99.90
2019-05-29T05:07:56.749Z,99.90
2019-05-29T05:10:38.151Z,99.90
2019-05-29T05:13:06.088Z,99.90
2019-05-29T05:15:35.902Z,99.90
2019-05-29T05:18:05.450Z,99.90
2019-05-29T05:20:33.924Z,99.90
2019-05-29T05:23:01.385Z,99.90
2019-05-29T05:25:30.010Z,99.90
2019-05-29T05:27:57.423Z,99.90
2019-05-29T05:30:25.090Z,99.90
2019-05-29T05:32:52.511Z,99.90
2019-05-29T05:35:19.979Z,99.90
2019-05-29T05:37:47.435Z,99.90
2019-05-29T05:40:14.905Z,99.90
2019-05-29T05:42:42.344Z,99.90
2019-05-29T05:45:10.353Z,99.90
2019-05-29T05:47:50.351Z,99.90
2019-05-29T05:50:07.561Z,93.40
2019-05-29T05:52:35.302Z,95.20
2019-05-29T05:55:02.774Z,93.20
2019-05-29T05:57:31.494Z,91.80
2019-05-29T05:59:59.015Z,92.00
2019-05-29T06:02:29.419Z,85.20
2019-05-29T06:04:56.769Z,76.40
2019-05-29T06:07:24.477Z,69.10
2019-05-29T06:09:52.183Z,69.60
2019-05-29T06:12:19.631Z,63.40
2019-05-29T06:14:50.671Z,60.00
2019-05-29T06:17:21.649Z,59.30
2019-05-29T06:19:47.644Z,66.00
2019-05-29T06:22:19.879Z,59.10
2019-05-29T06:24:49.663Z,55.40
2019-05-29T06:27:17.101Z,53.60
2019-05-29T06:29:44.573Z,57.20
2019-05-29T06:32:12.307Z,58.30
2019-05-29T06:34:39.727Z,62.00
2019-05-29T06:37:07.212Z,56.90
2019-05-29T06:39:35.549Z,55.60
2019-05-29T06:42:03.094Z,56.20
2019-05-29T06:44:30.550Z,56.00
2019-05-29T06:46:58.019Z,57.70
2019-05-29T06:49:25.475Z,57.80
2019-05-29T06:51:52.990Z,58.00
2019-05-29T06:54:20.444Z,57.00
2019-05-29T06:56:48.086Z,56.20
2019-05-29T06:59:15.767Z,55.40
2019-05-29T07:01:43.549Z,54.30
2019-05-29T07:04:12.492Z,52.00
2019-05-29T07:06:42.711Z,52.00
2019-05-29T07:09:12.552Z,52.80
2019-05-29T07:11:41.251Z,55.70
2019-05-29T07:14:12.486Z,52.80
2019-05-29T07:16:49.975Z,50.30
2019-05-29T07:19:24.729Z,50.80
2019-05-29T07:21:40.809Z,49.20
2019-05-29T07:24:09.428Z,49.50
2019-05-29T07:26:37.226Z,51.40
2019-05-29T07:29:08.443Z,53.70
2019-05-29T07:31:33.938Z,54.50
2019-05-29T07:34:01.435Z,52.60
2019-05-29T07:36:28.975Z,50.80
2019-05-29T07:39:03.379Z,48.10
2019-05-29T07:41:25.994Z,48.70
2019-05-29T07:43:53.731Z,47.30
2019-05-29T07:46:21.170Z,47.60
2019-05-29T07:48:50.325Z,46.20
2019-05-29T07:51:18.021Z,45.80
2019-05-29T07:53:46.447Z,46.60
2019-05-29T07:56:22.522Z,47.50
2019-05-29T07:58:49.203Z,44.00
2019-05-29T08:01:13.969Z,47.90
2019-05-29T08:03:43.467Z,49.50
2019-05-29T08:06:11.566Z,51.30
2019-05-29T08:08:41.818Z,54.50
2019-05-29T08:11:09.477Z,57.80
2019-05-29T08:13:36.851Z,64.80
2019-05-29T08:16:05.376Z,60.80
2019-05-29T08:18:32.853Z,53.10
2019-05-29T08:21:00.638Z,51.70
2019-05-29T08:23:28.072Z,49.40
2019-05-29T08:25:55.502Z,46.60
2019-05-29T08:28:23.035Z,47.80
2019-05-29T08:30:56.050Z,49.70
2019-05-29T08:33:20.230Z,48.30
2019-05-29T08:35:57.929Z,45.10
2019-05-29T08:38:19.502Z,45.40
2019-05-29T08:40:47.446Z,43.00
2019-05-29T08:43:15.174Z,42.90
2019-05-29T08:45:45.621Z,41.10
2019-05-29T08:48:13.592Z,41.60
2019-05-29T08:50:41.549Z,38.50
2019-05-29T08:53:09.279Z,39.50
2019-05-29T08:55:36.742Z,40.50
2019-05-29T08:58:04.218Z,40.90
2019-05-29T09:00:32.197Z,40.10
2019-05-29T09:03:00.190Z,37.10
2019-05-29T09:05:27.674Z,37.80
2019-05-29T09:07:56.428Z,36.30
2019-05-29T09:10:23.879Z,36.80
2019-05-29T09:13:01.823Z,37.20
2019-05-29T09:15:21.869Z,36.10
2019-05-29T09:17:49.426Z,36.30
2019-05-29T09:20:34.066Z,35.10
2019-05-29T09:22:46.596Z,33.80
2019-05-29T09:25:15.415Z,34.40
2019-05-29T09:27:42.850Z,37.20
2019-05-29T09:30:10.434Z,38.60
2019-05-29T09:32:50.520Z,40.50
2019-05-29T09:35:07.374Z,43.00
2019-05-29T09:37:34.795Z,42.70
2019-05-29T09:40:02.413Z,41.80
2019-05-29T09:42:35.018Z,39.10
2019-05-29T09:45:04.006Z,39.50
2019-05-29T09:47:32.928Z,39.10
2019-05-29T09:50:07.531Z,40.50
2019-05-29T09:52:37.994Z,39.00
2019-05-29T09:55:06.474Z,36.00
2019-05-29T09:57:36.005Z,33.20
2019-05-29T10:00:04.268Z,36.20
2019-05-29T10:02:34.270Z,37.70
2019-05-29T10:05:02.952Z,39.20
2019-05-29T10:07:32.803Z,42.90
2019-05-29T10:10:01.091Z,42.00
2019-05-29T10:12:29.799Z,38.40
2019-05-29T10:14:58.814Z,39.50
2019-05-29T10:17:26.821Z,42.20
2019-05-29T10:19:58.922Z,47.60
2019-05-29T10:22:32.505Z,46.70
2019-05-29T10:24:56.875Z,45.70
2019-05-29T10:27:24.995Z,45.00
2019-05-29T10:29:53.167Z,44.20
2019-05-29T10:32:24.684Z,47.00
2019-05-29T10:34:52.709Z,45.90
2019-05-29T10:37:22.919Z,49.40
2019-05-29T10:39:52.902Z,46.50
2019-05-29T10:42:23.796Z,43.30
2019-05-29T10:44:51.378Z,42.90
2019-05-29T10:47:18.781Z,44.90
2019-05-29T10:49:47.543Z,43.00
2019-05-29T10:52:17.422Z,42.00
2019-05-29T10:54:44.379Z,41.30
2019-05-29T10:57:13.881Z,41.90
2019-05-29T10:59:49.136Z,42.90
2019-05-29T11:02:16.557Z,41.60
2019-05-29T11:04:47.587Z,38.80
2019-05-29T11:07:13.225Z,34.90
2019-05-29T11:09:44.318Z,35.50
2019-05-29T11:12:12.352Z,38.30
2019-05-29T11:14:39.808Z,41.30
2019-05-29T11:17:07.407Z,41.20
2019-05-29T11:19:34.938Z,39.60
2019-05-29T11:22:24.717Z,37.80
2019-05-29T11:24:31.562Z,38.90
2019-05-29T11:26:59.111Z,38.30
2019-05-29T11:29:26.879Z,37.20
2019-05-29T11:31:55.041Z,36.70
2019-05-29T11:34:22.473Z,37.40
2019-05-29T11:36:50.021Z,38.70
2019-05-29T11:39:17.734Z,41.40
2019-05-29T11:41:45.191Z,40.80
2019-05-29T11:44:18.142Z,40.00
2019-05-29T11:46:47.155Z,40.80
2019-05-29T11:49:14.794Z,38.80
2019-05-29T11:51:44.378Z,39.90
2019-05-29T11:54:11.955Z,38.90
2019-05-29T11:56:44.292Z,38.90
2019-05-29T11:59:14.719Z,36.20
2019-05-29T12:01:50.333Z,32.90
2019-05-29T12:04:25.706Z,33.40
2019-05-29T12:06:42.069Z,33.00
2019-05-29T12:09:09.722Z,37.20
2019-05-29T12:11:41.435Z,39.50
2019-05-29T12:14:09.173Z,39.00
2019-05-29T12:16:36.595Z,36.60
2019-05-29T12:19:11.436Z,34.00
2019-05-29T12:21:42.546Z,34.10
2019-05-29T12:24:10.715Z,32.90
2019-05-29T12:26:38.451Z,36.60
2019-05-29T12:29:11.522Z,37.30
2019-05-29T12:31:40.275Z,35.30
2019-05-29T12:34:18.819Z,32.00
2019-05-29T12:36:37.809Z,29.90
2019-05-29T12:39:06.986Z,29.60
2019-05-29T12:41:34.478Z,28.40
2019-05-29T12:44:04.451Z,30.90
2019-05-29T12:46:31.964Z,30.80
2019-05-29T12:49:01.590Z,29.50
2019-05-29T12:51:29.250Z,28.60
2019-05-29T12:53:57.902Z,29.70
2019-05-29T12:56:25.396Z,32.50
2019-05-29T12:59:02.786Z,32.70
2019-05-29T13:01:32.106Z,31.70
2019-05-29T13:04:00.471Z,31.90
2019-05-29T13:06:30.431Z,32.30
2019-05-29T13:08:58.459Z,32.80
2019-05-29T13:11:26.032Z,32.90
2019-05-29T13:13:54.348Z,35.00
2019-05-29T13:16:22.094Z,37.20
2019-05-29T13:18:49.533Z,36.90
2019-05-29T13:21:16.988Z,36.90
2019-05-29T13:23:45.769Z,34.80
2019-05-29T13:26:13.551Z,34.30
2019-05-29T13:28:41.020Z,33.40
2019-05-29T13:31:08.662Z,32.60
2019-05-29T13:33:36.141Z,31.90
2019-05-29T13:36:04.511Z,31.10
2019-05-29T13:38:32.105Z,31.90
2019-05-29T13:41:00.396Z,33.80
2019-05-29T13:43:27.925Z,35.50
2019-05-29T13:45:56.295Z,36.80
2019-05-29T13:48:23.754Z,37.90
2019-05-29T13:50:51.190Z,39.20
2019-05-29T13:53:18.571Z,39.70
2019-05-29T13:55:46.275Z,38.10
2019-05-29T13:58:13.873Z,39.60
2019-05-29T14:00:41.323Z,41.20
2019-05-29T14:03:09.334Z,41.70
2019-05-29T14:05:37.115Z,39.40
2019-05-29T14:08:05.016Z,38.50
2019-05-29T14:10:32.369Z,39.10
2019-05-29T14:13:00.971Z,39.00
2019-05-29T14:15:28.519Z,39.60
2019-05-29T14:17:56.320Z,39.80
2019-05-29T14:20:23.744Z,40.60
2019-05-29T14:22:51.219Z,41.30
2019-05-29T14:25:19.420Z,42.70
2019-05-29T14:27:46.889Z,40.00
2019-05-29T14:30:21.447Z,39.90
2019-05-29T14:32:48.939Z,39.50
2019-05-29T14:35:16.560Z,41.10
2019-05-29T14:37:44.114Z,42.80
2019-05-29T14:40:14.215Z,40.80
2019-05-29T14:42:41.704Z,40.00
2019-05-29T14:45:12.595Z,37.80
2019-05-29T14:47:40.739Z,38.00
2019-05-29T14:50:10.968Z,37.80
2019-05-29T14:52:39.266Z,39.40
2019-05-29T14:55:08.781Z,39.60
2019-05-29T14:57:36.746Z,40.80
2019-05-29T15:00:20.963Z,40.60
2019-05-29T15:02:39.390Z,40.70
2019-05-29T15:05:07.983Z,39.70
2019-05-29T15:07:35.439Z,39.10
2019-05-29T15:10:08.669Z,38.10
2019-05-29T15:12:32.598Z,36.80
2019-05-29T15:15:00.461Z,37.90
2019-05-29T15:17:28.217Z,37.90
2019-05-29T15:19:55.668Z,38.10
2019-05-29T15:22:23.180Z,36.20
2019-05-29T15:25:04.185Z,38.10
2019-05-29T15:27:19.873Z,38.50
2019-05-29T15:29:47.275Z,38.60
2019-05-29T15:32:14.787Z,39.00
2019-05-29T15:34:42.260Z,39.40
2019-05-29T15:37:12.196Z,40.30
2019-05-29T15:39:38.920Z,41.00
2019-05-29T15:42:06.864Z,39.10
2019-05-29T15:44:34.920Z,38.60
2019-05-29T15:47:06.857Z,37.90
2019-05-29T15:49:35.047Z,39.60
2019-05-29T15:52:02.542Z,39.90
2019-05-29T15:54:30.037Z,40.90
2019-05-29T15:56:58.658Z,39.50
2019-05-29T15:59:26.183Z,40.60
2019-05-29T16:01:53.654Z,39.50
2019-05-29T16:04:22.793Z,40.10
2019-05-29T16:06:50.633Z,40.10
2019-05-29T16:09:19.307Z,39.10
2019-05-29T16:11:47.064Z,38.70
2019-05-29T16:14:14.977Z,39.60
2019-05-29T16:16:42.504Z,40.20
2019-05-29T16:19:10.394Z,40.40
2019-05-29T16:21:38.698Z,40.00
2019-05-29T16:24:06.126Z,39.80
2019-05-29T16:26:33.829Z,40.80
2019-05-29T16:29:01.339Z,40.80
2019-05-29T16:31:29.111Z,40.60
2019-05-29T16:33:56.899Z,40.70
2019-05-29T16:36:24.367Z,40.70
2019-05-29T16:38:54.189Z,40.20
2019-05-29T16:41:21.994Z,40.40
2019-05-29T16:43:49.493Z,41.30
2019-05-29T16:46:19.284Z,42.80
2019-05-29T16:48:46.650Z,43.30
2019-05-29T16:51:14.576Z,42.80
2019-05-29T16:53:42.122Z,43.10
2019-05-29T16:56:09.591Z,43.70
2019-05-29T16:58:37.042Z,44.40
2019-05-29T17:01:06.879Z,44.20
2019-05-29T17:03:46.820Z,44.90
2019-05-29T17:06:15.785Z,44.80
2019-05-29T17:08:43.766Z,44.60
2019-05-29T17:11:11.230Z,44.30
2019-05-29T17:13:38.729Z,43.70
2019-05-29T17:16:06.192Z,43.40
2019-05-29T17:18:33.653Z,43.70
2019-05-29T17:21:01.423Z,43.30
2019-05-29T17:23:28.854Z,43.60
2019-05-29T17:26:09.739Z,44.10
2019-05-29T17:28:28.344Z,44.40
2019-05-29T17:30:57.476Z,45.20
2019-05-29T17:33:25.246Z,44.80
2019-05-29T17:35:53.029Z,44.90
2019-05-29T17:38:23.369Z,44.80
2019-05-29T17:40:50.860Z,44.80
2019-05-29T17:43:22.002Z,46.00
2019-05-29T17:45:47.999Z,45.70
2019-05-29T17:48:15.772Z,45.90
2019-05-29T17:50:43.506Z,46.70
2019-05-29T17:53:10.991Z,45.90
2019-05-29T17:55:39.849Z,46.70
2019-05-29T17:58:08.830Z,46.40
2019-05-29T18:00:36.352Z,46.20
2019-05-29T18:03:04.394Z,47.10
2019-05-29T18:05:36.801Z,47.70
2019-05-29T18:08:03.981Z,48.00
2019-05-29T18:10:31.442Z,47.70
2019-05-29T18:12:58.790Z,48.00
2019-05-29T18:15:27.515Z,48.70
2019-05-29T18:17:55.381Z,49.00
2019-05-29T18:20:25.847Z,50.00
2019-05-29T18:22:53.393Z,49.60
2019-05-29T18:25:21.926Z,51.00
2019-05-29T18:27:51.712Z,49.50
2019-05-29T18:30:20.180Z,51.20
2019-05-29T18:32:54.063Z,54.00
2019-05-29T18:35:27.056Z,55.50
2019-05-29T18:37:54.610Z,54.60
2019-05-29T18:40:22.480Z,55.80
2019-05-29T18:42:49.960Z,60.10
2019-05-29T18:45:21.622Z,65.70
2019-05-29T18:47:48.077Z,71.80
2019-05-29T18:50:15.881Z,82.70
2019-05-29T18:52:48.462Z,89.20
2019-05-29T18:55:16.155Z,91.60
2019-05-29T18:57:47.951Z,92.90
2019-05-29T19:00:17.020Z,94.40
2019-05-29T19:02:44.758Z,94.50
2019-05-29T19:05:13.588Z,95.20
2019-05-29T19:07:42.438Z,96.00
2019-05-29T19:10:13.632Z,96.80
2019-05-29T19:12:41.419Z,97.00
2019-05-29T19:15:09.403Z,97.20
2019-05-29T19:17:37.550Z,97.30
2019-05-29T19:20:06.209Z,98.00
2019-05-29T19:22:33.609Z,98.00
2019-05-29T19:25:01.063Z,98.60
2019-05-29T19:27:37.442Z,99.70
2019-05-29T19:30:02.352Z,99.90
2019-05-29T19:32:29.824Z,99.90
2019-05-29T19:34:57.331Z,99.90
2019-05-29T19:37:27.913Z,99.90
2019-05-29T19:39:55.474Z,99.90
2019-05-29T19:42:24.090Z,99.90
2019-05-29T19:44:54.682Z,99.90
2019-05-29T19:47:22.059Z,99.90
2019-05-29T19:49:49.517Z,99.90
2019-05-29T19:52:17.275Z,99.90
2019-05-29T19:54:45.049Z,99.90
2019-05-29T19:57:12.782Z,99.90
2019-05-29T19:59:40.193Z,99.90
2019-05-29T20:02:07.929Z,99.90
2019-05-29T20:04:40.611Z,99.90
2019-05-29T20:07:13.942Z,99.90
2019-05-29T20:09:41.706Z,99.90
2019-05-29T20:12:09.510Z,99.90
2019-05-29T20:14:38.090Z,99.90
2019-05-29T20:17:09.778Z,99.90
2019-05-29T20:19:41.022Z,99.90
2019-05-29T20:22:08.818Z,99.90
2019-05-29T20:24:36.884Z,99.90
2019-05-29T20:27:04.442Z,99.90
2019-05-29T20:29:32.363Z,99.90
2019-05-29T20:32:02.117Z,99.90
2019-05-29T20:34:32.451Z,99.90
2019-05-29T20:37:00.464Z,99.90
2019-05-29T20:39:30.211Z,99.90
2019-05-29T20:41:59.341Z,99.90
2019-05-29T20:44:26.802Z,99.90
2019-05-29T20:46:54.166Z,99.90
2019-05-29T20:49:42.183Z,99.90
2019-05-29T20:52:09.807Z,99.90
2019-05-29T20:54:37.699Z,99.90
2019-05-29T20:57:11.164Z,99.90
2019-05-29T20:59:42.492Z,99.90
2019-05-29T21:02:09.964Z,99.90
2019-05-29T21:04:40.570Z,99.90
2019-05-29T21:07:08.679Z,99.90
2019-05-29T21:09:36.915Z,99.90
2019-05-29T21:12:04.390Z,99.90
2019-05-29T21:14:33.489Z,99.90
2019-05-29T21:17:01.096Z,99.90
2019-05-29T21:19:28.487Z,99.90
2019-05-29T21:21:58.019Z,99.90
2019-05-29T21:24:25.821Z,99.90
2019-05-29T21:26:53.513Z,99.90
2019-05-29T21:29:22.985Z,99.90
2019-05-29T21:31:50.464Z,99.90
2019-05-29T21:34:18.182Z,99.90
2019-05-29T21:36:46.370Z,99.90
2019-05-29T21:39:13.907Z,99.90
2019-05-29T21:41:42.479Z,99.90
2019-05-29T21:44:10.261Z,99.90
2019-05-29T21:46:38.744Z,99.90
2019-05-29T21:49:06.547Z,99.90
2019-05-29T21:51:33.974Z,99.90
2019-05-29T21:54:01.485Z,99.90
2019-05-29T21:56:29.246Z,99.90
2019-05-29T21:59:03.501Z,99.90
2019-05-29T22:01:26.340Z,99.90
2019-05-29T22:03:53.687Z,99.90
2019-05-29T22:06:21.431Z,99.90
2019-05-29T22:08:48.857Z,99.90
2019-05-29T22:11:16.658Z,99.90
2019-05-29T22:13:44.086Z,99.90
2019-05-29T22:16:11.807Z,99.90
2019-05-29T22:18:39.531Z,99.90
2019-05-29T22:21:06.939Z,99.90
2019-05-29T22:23:34.721Z,99.90
2019-05-29T22:26:02.062Z,99.90
2019-05-29T22:28:29.501Z,99.90
2019-05-29T22:30:57.362Z,99.90
2019-05-29T22:33:24.783Z,99.90
2019-05-29T22:35:54.017Z,99.90
2019-05-29T22:38:21.861Z,99.90
2019-05-29T22:40:49.351Z,99.90
2019-05-29T22:43:17.031Z,99.90
2019-05-29T22:45:44.357Z,99.90
2019-05-29T22:48:11.821Z,99.90
2019-05-29T22:50:39.538Z,99.90
2019-05-29T22:53:06.986Z,99.90
2019-05-29T22:55:35.756Z,99.90
2019-05-29T22:58:13.636Z,99.90
2019-05-29T23:00:41.194Z,99.90
2019-05-29T23:03:09.991Z,99.90
2019-05-29T23:05:37.414Z,99.90
2019-05-29T23:08:04.860Z,99.90
2019-05-29T23:10:34.859Z,99.90
2019-05-29T23:13:05.943Z,99.90
2019-05-29T23:15:33.893Z,99.90
2019-05-29T23:18:02.435Z,99.90
2019-05-29T23:20:30.421Z,99.90
2019-05-29T23:22:58.614Z,99.90
2019-05-29T23:25:26.075Z,99.90
2019-05-29T23:27:54.810Z,99.90
2019-05-29T23:30:22.679Z,99.90
2019-05-29T23:32:53.345Z,99.90
2019-05-29T23:35:20.782Z,99.90
2019-05-29T23:37:48.225Z,99.90
2019-05-29T23:40:15.588Z,99.90
2019-05-29T23:42:43.034Z,99.90
2019-05-29T23:45:10.851Z,99.90
2019-05-29T23:47:38.598Z,99.90
2019-05-29T23:50:07.819Z,99.90
2019-05-29T23:52:37.248Z,99.90
2019-05-29T23:55:04.810Z,99.90
2019-05-29T23:57:38.091Z,99.90
